East Montpelier Center, Vermont
Current Conditions -  °F | °C
As of 10:51 AM on Saturday 25 Oct 2014 (Local Time) from KMPV Reporting Station
Clear Clear  
Wind Chill: 50°   Ceiling: Unl
Heat Index: 50°   Visibility: 10mi
Dew Point: 38°   Wind: 3mph
Humidity: 63%   Direction: NA
Pressure: 29.75"   Gusts: NA
Location:  44.2861°N, 72.6004°W
Report Text: KMPV 251451Z AUTO VRB03KT 10SM CLR 10/03 A2975 RMK AO2 SLP080 T01000033 58013 $
Loading
Personal Weather Stations






























Interactive Weather Map
Tropical Storm Tracking
New forecast layout! Learn more

10-Day Weather Forecast

Advertisements
Track Severe Weather on mobile